Air Navigation Services of Czech Republic
Airport: LKKV Updated:  21.01.2020 23:21:26  UTC
 METAR LKKV 21.01. 23:00 ...
METAR LKKV 212300Z 00000KT CAVOK M07/M07 Q1035 RMK REG QNH 1031=
 TAF LKKV 21.01. 23:00 ...
TAF LKKV 212300Z 2200/2306 VRB02KT CAVOK      TEMPO 2200/2207 7000 SCT003      BECMG 2207/2209 23004KT SCT020      BECMG 2214/2216 5000 BR BKN005      TEMPO 2216/2306 1500 -SN BR BKN002=